Time;durP1;ratioP1;P1;durP2;ratioP2;P2;SDS_P1;SDS_P2;PMS_P1;PMS_P2;Temp;Humidity;BMP_temperature;BMP_pressure;BME280_temperature;BME280_humidity;BME280_pressure;Samples;Min_cycle;Max_cycle;Signal;HPM_P1;HPM_P2
2022/12/10 00:00:39;;;;;;;;;;;;;;;6.86;nan;100988.75;5006524;28;19995;-34
2022/12/10 00:03:05;;;;;;;;;;;;;;;6.86;nan;100996.72;5007167;28;19917;-34
2022/12/10 00:05:32;;;;;;;;;;;;;;;6.88;nan;100999.19;5013122;28;19929;-35
2022/12/10 00:07:58;;;;;;;;;;;;;;;6.89;nan;100990.16;5018398;28;19933;-34
2022/12/10 00:10:23;;;;;;;;;;;;;;;6.89;nan;100992.81;5005288;28;20403;-35
2022/12/10 00:12:49;;;;;;;;;;;;;;;6.90;nan;100989.13;5009331;28;20477;-34
2022/12/10 00:15:14;;;;;;;;;;;;;;;6.90;nan;100981.94;5010973;28;20459;-37
2022/12/10 00:17:39;;;;;;;;;;;;;;;6.89;nan;100982.16;5006795;28;20296;-35
2022/12/10 00:20:05;;;;;;;;;;;;;;;6.87;nan;100981.56;5008479;28;20388;-34
2022/12/10 00:22:30;;;;;;;;;;;;;;;6.89;nan;100982.16;5012116;28;20385;-34
2022/12/10 00:24:56;;;;;;;;;;;;;;;6.90;nan;100989.13;5013316;28;19921;-35
2022/12/10 00:27:21;;;;;;;;;;;;;;;6.92;nan;100985.19;5011499;28;20363;-35
2022/12/10 00:29:46;;;;;;;;;;;;;;;6.94;nan;100987.63;5012790;28;19995;-34
2022/12/10 00:32:12;;;;;;;;;;;;;;;6.94;nan;100991.13;5007669;28;19948;-35
2022/12/10 00:34:37;;;;;;;;;;;;;;;6.94;nan;100988.47;5006828;28;19921;-35
2022/12/10 00:37:02;;;;;;;;;;;;;;;6.94;nan;100987.63;5010936;28;19917;-35
2022/12/10 00:39:28;;;;;;;;;;;;;;;6.93;nan;100989.50;5008093;28;20431;-35
2022/12/10 00:41:54;;;;;;;;;;;;;;;6.94;nan;100993.78;5015845;28;19975;-34
2022/12/10 00:44:19;;;;;;;;;;;;;;;6.93;nan;100986.81;5009614;28;19957;-35
2022/12/10 00:46:44;;;;;;;;;;;;;;;6.93;nan;100986.00;5006183;28;20753;-35
2022/12/10 00:49:10;;;;;;;;;;;;;;;6.93;nan;100986.00;5011576;28;20171;-35
2022/12/10 00:51:35;;;;;;;;;;;;;;;6.93;nan;100983.34;5005607;28;19925;-35
2022/12/10 00:54:00;;;;;;;;;;;;;;;6.92;nan;100984.38;5001443;28;20114;-35
2022/12/10 00:56:28;;;;;;;;;;;;;;;6.92;nan;100982.53;5007656;28;19917;-35
2022/12/10 00:58:53;;;;;;;;;;;;;;;6.94;nan;100982.31;5005444;28;19960;-35
2022/12/10 01:01:38;;;;;;;;;;;;;;;6.94;nan;100983.13;5005913;28;19961;-36
2022/12/10 01:04:06;;;;;;;;;;;;;;;6.95;nan;100983.94;5001368;28;19995;-35
2022/12/10 01:06:33;;;;;;;;;;;;;;;6.94;nan;100985.78;5006469;28;19925;-35
2022/12/10 01:09:01;;;;;;;;;;;;;;;6.95;nan;100994.59;5012928;28;19925;-35
2022/12/10 01:11:29;;;;;;;;;;;;;;;6.94;nan;100998.28;5003849;28;20148;-35
2022/12/10 01:13:54;;;;;;;;;;;;;;;6.91;nan;100994.22;5011836;28;20365;-36
2022/12/10 01:16:21;;;;;;;;;;;;;;;6.90;nan;100997.91;5006608;28;19921;-34
2022/12/10 01:18:46;;;;;;;;;;;;;;;6.90;nan;100997.91;5016038;28;19960;-34
2022/12/10 01:21:13;;;;;;;;;;;;;;;6.92;nan;101005.69;5005524;28;20360;-35
2022/12/10 01:23:40;;;;;;;;;;;;;;;6.92;nan;101003.84;5003891;28;19932;-34
2022/12/10 01:26:06;;;;;;;;;;;;;;;6.92;nan;101001.19;5006661;28;19924;-34
2022/12/10 01:28:33;;;;;;;;;;;;;;;6.92;nan;101006.50;5007739;28;19927;-34
2022/12/10 01:31:05;;;;;;;;;;;;;;;6.93;nan;101010.78;5011387;28;19922;-35
2022/12/10 01:33:31;;;;;;;;;;;;;;;6.90;nan;101013.91;5005342;28;20008;-36
2022/12/10 01:36:01;;;;;;;;;;;;;;;6.86;nan;101017.22;5005778;28;20052;-35
2022/12/10 01:38:26;;;;;;;;;;;;;;;6.83;nan;101015.81;5003981;28;20239;-36
2022/12/10 01:40:52;;;;;;;;;;;;;;;6.82;nan;101016.00;5004120;28;19995;-37
2022/12/10 01:43:17;;;;;;;;;;;;;;;6.82;nan;101024.00;5015726;28;19918;-36
2022/12/10 01:45:42;;;;;;;;;;;;;;;6.82;nan;101016.84;5009717;28;19929;-37
2022/12/10 01:48:08;;;;;;;;;;;;;;;6.84;nan;101021.97;5009298;28;20122;-34
2022/12/10 01:50:33;;;;;;;;;;;;;;;6.83;nan;101012.34;5016521;28;20006;-35
2022/12/10 01:53:00;;;;;;;;;;;;;;;6.83;nan;101013.16;5015167;28;19917;-34
2022/12/10 01:55:57;;;;;;;;;;;;;;;6.83;nan;101009.66;5018216;28;20412;-35
2022/12/10 01:58:22;;;;;;;;;;;;;;;6.85;nan;101008.41;4975019;28;20012;-35
2022/12/10 02:01:00;;;;;;;;;;;;;;;6.87;nan;100998.34;5011703;28;20032;-35
2022/12/10 02:03:45;;;;;;;;;;;;;;;6.88;nan;101000.00;5016632;28;20334;-34
2022/12/10 02:06:17;;;;;;;;;;;;;;;6.90;nan;101007.75;4998067;28;20297;-35
2022/12/10 02:09:18;;;;;;;;;;;;;;;6.89;nan;101006.94;5015984;28;20450;-35
2022/12/10 02:11:50;;;;;;;;;;;;;;;6.86;nan;101002.06;4929901;29;19919;-34
2022/12/10 02:14:23;;;;;;;;;;;;;;;6.84;nan;101006.78;4998295;28;19924;-36
2022/12/10 02:17:01;;;;;;;;;;;;;;;6.83;nan;101002.50;5010430;28;21212;-35
2022/12/10 02:19:44;;;;;;;;;;;;;;;6.85;nan;101003.09;5010126;28;19917;-34
2022/12/10 02:22:10;;;;;;;;;;;;;;;6.88;nan;101000.00;5010778;28;19940;-35
2022/12/10 02:24:36;;;;;;;;;;;;;;;6.89;nan;101001.63;5009651;28;19954;-35
2022/12/10 02:27:06;;;;;;;;;;;;;;;6.89;nan;101006.94;5011576;28;19933;-34
2022/12/10 02:29:32;;;;;;;;;;;;;;;6.89;nan;101009.59;5010503;28;20348;-35
2022/12/10 02:32:00;;;;;;;;;;;;;;;6.85;nan;101013.75;5016635;28;19921;-34
2022/12/10 02:34:27;;;;;;;;;;;;;;;6.82;nan;101006.19;5010228;28;19917;-35
2022/12/10 02:36:54;;;;;;;;;;;;;;;6.81;nan;101003.72;4992852;28;19921;-34
2022/12/10 02:39:23;;;;;;;;;;;;;;;6.80;nan;101007.41;5015160;28;19917;-34
2022/12/10 02:41:51;;;;;;;;;;;;;;;6.83;nan;101001.69;5010589;28;19960;-34
2022/12/10 02:44:19;;;;;;;;;;;;;;;6.84;nan;101008.63;5010570;28;20024;-35
2022/12/10 02:46:46;;;;;;;;;;;;;;;6.87;nan;101001.03;5009876;28;20042;-34
2022/12/10 02:49:13;;;;;;;;;;;;;;;6.87;nan;101013.53;5009929;28;20016;-34
2022/12/10 02:51:39;;;;;;;;;;;;;;;6.87;nan;101003.69;5009200;28;19925;-35
2022/12/10 02:54:05;;;;;;;;;;;;;;;6.86;nan;101002.06;5012142;28;19917;-35
2022/12/10 02:56:34;;;;;;;;;;;;;;;6.86;nan;101007.38;5009707;28;19940;-36
2022/12/10 02:59:18;;;;;;;;;;;;;;;6.85;nan;100997.75;5009680;28;19952;-35
2022/12/10 03:01:58;;;;;;;;;;;;;;;6.84;nan;100998.81;5010861;28;20439;-35
2022/12/10 03:04:47;;;;;;;;;;;;;;;6.84;nan;101001.47;5010371;28;19921;-35
2022/12/10 03:07:32;;;;;;;;;;;;;;;6.86;nan;101003.91;4972033;28;20396;-34
2022/12/10 03:10:03;;;;;;;;;;;;;;;6.87;nan;100997.53;5015711;28;19921;-35
2022/12/10 03:12:55;;;;;;;;;;;;;;;6.86;nan;100995.91;5014858;28;19954;-35
2022/12/10 03:15:23;;;;;;;;;;;;;;;6.85;nan;100995.09;5009932;28;19943;-36
2022/12/10 03:17:49;;;;;;;;;;;;;;;6.86;nan;101002.06;5009903;28;19921;-35
2022/12/10 03:20:15;;;;;;;;;;;;;;;6.86;nan;100999.41;5010264;28;19945;-34
2022/12/10 03:22:43;;;;;;;;;;;;;;;6.88;nan;101007.97;5009132;28;19917;-35
2022/12/10 03:25:10;;;;;;;;;;;;;;;6.88;nan;100996.50;5010169;28;20204;-35
2022/12/10 03:27:38;;;;;;;;;;;;;;;6.84;nan;101008.63;5008109;28;20015;-35
2022/12/10 03:30:03;;;;;;;;;;;;;;;6.83;nan;101002.50;5010374;28;20508;-35
2022/12/10 03:32:29;;;;;;;;;;;;;;;6.83;nan;101007.00;5008968;28;20008;-36
2022/12/10 03:34:57;;;;;;;;;;;;;;;6.81;nan;101004.53;5010019;28;19917;-35
2022/12/10 03:37:23;;;;;;;;;;;;;;;6.83;nan;100999.03;5008493;28;19929;-34
2022/12/10 03:39:49;;;;;;;;;;;;;;;6.81;nan;101009.03;5008967;28;19921;-36
2022/12/10 03:42:15;;;;;;;;;;;;;;;6.78;nan;101004.97;5010843;28;19924;-35
2022/12/10 03:44:41;;;;;;;;;;;;;;;6.77;nan;101006.00;5007869;28;19976;-36
2022/12/10 03:47:08;;;;;;;;;;;;;;;6.74;nan;101003.78;5008775;28;19918;-35
2022/12/10 03:49:33;;;;;;;;;;;;;;;6.74;nan;101003.78;5008365;28;19917;-36
2022/12/10 03:51:58;;;;;;;;;;;;;;;6.74;nan;100998.47;5010631;28;20556;-35
2022/12/10 03:54:24;;;;;;;;;;;;;;;6.73;nan;100998.69;5009755;28;20442;-34
2022/12/10 03:56:49;;;;;;;;;;;;;;;6.72;nan;101000.53;5019267;28;20416;-35
2022/12/10 03:59:14;;;;;;;;;;;;;;;6.71;nan;101003.41;5005818;28;19917;-36
2022/12/10 04:01:40;;;;;;;;;;;;;;;6.72;nan;100997.03;5015297;28;19924;-34
2022/12/10 04:04:06;;;;;;;;;;;;;;;6.72;nan;100997.88;5014841;28;20403;-37
2022/12/10 04:06:31;;;;;;;;;;;;;;;6.72;nan;100992.53;5007920;28;19925;-35
2022/12/10 04:08:56;;;;;;;;;;;;;;;6.74;nan;100992.31;5008516;28;20472;-34
2022/12/10 04:11:22;;;;;;;;;;;;;;;6.75;nan;101000.09;5008116;28;20063;-34
2022/12/10 04:16:34;;;;;;;;;;;;;;;6.76;nan;101000.91;5007846;28;19949;-37
2022/12/10 04:19:07;;;;;;;;;;;;;;;6.74;nan;101001.13;5018003;28;19924;-33
2022/12/10 04:27:04;;;;;;;;;;;;;;;6.70;nan;101005.25;5006450;28;20355;-35
2022/12/10 04:29:30;;;;;;;;;;;;;;;6.71;nan;100995.41;5007478;28;20024;-37
2022/12/10 04:31:56;;;;;;;;;;;;;;;6.70;nan;100988.47;5010190;28;20008;-35
2022/12/10 04:34:21;;;;;;;;;;;;;;;6.68;nan;100988.69;5009773;28;19918;-35
2022/12/10 04:36:47;;;;;;;;;;;;;;;6.66;nan;100983.56;5007863;28;19917;-34
2022/12/10 04:39:12;;;;;;;;;;;;;;;6.67;nan;100992.38;5008191;28;19972;-35
2022/12/10 04:41:42;;;;;;;;;;;;;;;6.66;nan;100986.25;5009900;28;20176;-35
2022/12/10 04:44:07;;;;;;;;;;;;;;;6.64;nan;100985.63;5008321;28;19941;-35
2022/12/10 04:49:09;;;;;;;;;;;;;;;6.63;nan;100986.63;5003811;28;19926;-33
2022/12/10 04:51:34;;;;;;;;;;;;;;;6.64;nan;100995.44;5006945;28;19922;-33
2022/12/10 04:54:00;;;;;;;;;;;;;;;6.66;nan;100994.22;5007647;28;19965;-33
2022/12/10 04:56:26;;;;;;;;;;;;;;;6.67;nan;100987.06;5007417;28;20361;-33
2022/12/10 04:58:51;;;;;;;;;;;;;;;6.69;nan;100992.16;5004680;28;19921;-33
2022/12/10 05:01:18;;;;;;;;;;;;;;;6.72;nan;100994.38;5007383;28;19960;-32
2022/12/10 05:03:44;;;;;;;;;;;;;;;6.70;nan;100991.94;5006905;28;20008;-33
2022/12/10 05:06:11;;;;;;;;;;;;;;;6.70;nan;101001.78;5006943;28;20004;-33
2022/12/10 05:08:37;;;;;;;;;;;;;;;6.68;nan;100993.19;5006899;28;20014;-33
2022/12/10 05:11:03;;;;;;;;;;;;;;;6.66;nan;100996.06;5007513;28;19922;-33
2022/12/10 05:13:28;;;;;;;;;;;;;;;6.64;nan;100992.78;5007383;28;20048;-33
2022/12/10 05:15:54;;;;;;;;;;;;;;;6.60;nan;100997.72;5006582;28;19925;-33
2022/12/10 05:18:19;;;;;;;;;;;;;;;6.56;nan;100987.72;5007836;28;20060;-32
2022/12/10 05:20:44;;;;;;;;;;;;;;;6.51;nan;100985.72;5011206;28;19924;-33
2022/12/10 05:23:28;;;;;;;;;;;;;;;6.50;nan;100986.75;5010535;28;19924;-33
2022/12/10 05:26:03;;;;;;;;;;;;;;;6.50;nan;100996.59;5010830;28;19932;-33
2022/12/10 05:28:30;;;;;;;;;;;;;;;6.53;nan;100988.16;5008360;28;19923;-33
2022/12/10 05:30:56;;;;;;;;;;;;;;;6.56;nan;101003.72;5010581;28;19925;-33
2022/12/10 05:33:21;;;;;;;;;;;;;;;6.58;nan;100996.31;5010716;28;19917;-33
2022/12/10 05:35:57;;;;;;;;;;;;;;;6.57;nan;101000.81;5010236;28;19979;-33
2022/12/10 05:38:23;;;;;;;;;;;;;;;6.58;nan;101004.31;5009088;28;19925;-33
2022/12/10 05:40:48;;;;;;;;;;;;;;;6.56;nan;101017.03;5010001;28;19918;-34
2022/12/10 05:43:14;;;;;;;;;;;;;;;6.55;nan;101018.06;5010770;28;19921;-33
2022/12/10 05:45:39;;;;;;;;;;;;;;;6.53;nan;101014.78;5006012;28;19948;-33
2022/12/10 05:48:05;;;;;;;;;;;;;;;6.53;nan;101012.94;5010143;28;20403;-33
2022/12/10 05:50:33;;;;;;;;;;;;;;;6.54;nan;101011.09;5010537;28;19918;-33
2022/12/10 05:52:59;;;;;;;;;;;;;;;6.57;nan;101018.66;5009801;28;20411;-33
2022/12/10 05:55:26;;;;;;;;;;;;;;;6.59;nan;101011.25;5010285;28;19965;-33
2022/12/10 05:57:51;;;;;;;;;;;;;;;6.61;nan;101014.53;5009502;28;19921;-33
2022/12/10 06:00:17;;;;;;;;;;;;;;;6.62;nan;101016.16;5010074;28;19917;-32
2022/12/10 06:02:42;;;;;;;;;;;;;;;6.64;nan;101008.75;5010208;28;19918;-33
2022/12/10 06:05:08;;;;;;;;;;;;;;;6.65;nan;101008.56;5009453;28;19921;-33
2022/12/10 06:07:33;;;;;;;;;;;;;;;6.66;nan;101009.38;5009864;28;20260;-33
2022/12/10 06:09:58;;;;;;;;;;;;;;;6.66;nan;101006.72;5009623;28;19971;-33
2022/12/10 06:12:23;;;;;;;;;;;;;;;6.65;nan;101003.25;5009962;28;19921;-33
2022/12/10 06:14:49;;;;;;;;;;;;;;;6.64;nan;101003.44;5009722;28;20154;-33
2022/12/10 06:17:14;;;;;;;;;;;;;;;6.65;nan;101003.25;5009218;28;19921;-33
2022/12/10 06:19:39;;;;;;;;;;;;;;;6.66;nan;101010.19;5009553;28;19924;-33
2022/12/10 06:22:05;;;;;;;;;;;;;;;6.68;nan;101003.84;5009694;28;19932;-33
2022/12/10 06:24:30;;;;;;;;;;;;;;;6.69;nan;101010.78;5009301;28;19926;-33
2022/12/10 06:26:55;;;;;;;;;;;;;;;6.67;nan;101021.66;5009564;28;19927;-32
2022/12/10 06:29:21;;;;;;;;;;;;;;;6.66;nan;101012.03;5009633;28;20344;-33
2022/12/10 06:31:46;;;;;;;;;;;;;;;6.66;nan;101012.03;5008741;28;19917;-33
2022/12/10 06:34:11;;;;;;;;;;;;;;;6.66;nan;101022.69;5009124;28;19924;-33
2022/12/10 06:36:37;;;;;;;;;;;;;;;6.66;nan;101033.34;5009407;28;19917;-33
2022/12/10 06:39:03;;;;;;;;;;;;;;;6.64;nan;101030.91;5009060;28;19972;-33
2022/12/10 06:41:28;;;;;;;;;;;;;;;6.64;nan;101035.38;5009468;28;19917;-33
2022/12/10 06:43:57;;;;;;;;;;;;;;;6.66;nan;101041.34;5008841;28;19925;-33
2022/12/10 06:46:23;;;;;;;;;;;;;;;6.68;nan;101044.59;5008853;28;20279;-33
2022/12/10 06:48:48;;;;;;;;;;;;;;;6.69;nan;101042.75;5005887;28;19923;-33
2022/12/10 06:51:14;;;;;;;;;;;;;;;6.71;nan;101051.34;5008540;28;20292;-33
2022/12/10 06:53:40;;;;;;;;;;;;;;;6.72;nan;101048.47;5009545;28;20385;-33
2022/12/10 06:56:07;;;;;;;;;;;;;;;6.73;nan;101046.59;5009314;28;19932;-33
2022/12/10 06:58:33;;;;;;;;;;;;;;;6.72;nan;101043.13;5008157;28;19964;-32
2022/12/10 07:01:09;;;;;;;;;;;;;;;6.73;nan;101049.28;5009403;28;19929;-33
2022/12/10 07:03:35;;;;;;;;;;;;;;;6.75;nan;101058.66;5008896;28;19917;-33
2022/12/10 07:06:01;;;;;;;;;;;;;;;6.75;nan;101063.19;5009044;28;20462;-33
2022/12/10 07:08:26;;;;;;;;;;;;;;;6.75;nan;101064.00;5008071;28;20052;-33
2022/12/10 07:10:51;;;;;;;;;;;;;;;6.74;nan;101059.69;5008799;28;19917;-33
2022/12/10 07:13:17;;;;;;;;;;;;;;;6.74;nan;101062.38;5008721;28;19933;-33
2022/12/10 07:15:42;;;;;;;;;;;;;;;6.75;nan;101063.19;5008718;28;20016;-33
2022/12/10 07:18:07;;;;;;;;;;;;;;;6.74;nan;101067.69;5007954;28;19960;-33
2022/12/10 07:20:33;;;;;;;;;;;;;;;6.73;nan;101063.41;5008471;28;19917;-33
2022/12/10 07:22:58;;;;;;;;;;;;;;;6.75;nan;101063.19;5008354;28;20020;-33
2022/12/10 07:25:23;;;;;;;;;;;;;;;6.76;nan;101064.81;5008476;28;19922;-32
2022/12/10 07:27:49;;;;;;;;;;;;;;;6.75;nan;101068.50;5008036;28;19917;-33
2022/12/10 07:30:14;;;;;;;;;;;;;;;6.74;nan;101064.22;5008769;28;19917;-33
2022/12/10 07:32:39;;;;;;;;;;;;;;;6.74;nan;101072.19;5005065;28;19917;-33
2022/12/10 07:35:05;;;;;;;;;;;;;;;6.73;nan;101076.72;5008104;28;19980;-32
2022/12/10 07:37:30;;;;;;;;;;;;;;;6.75;nan;101065.84;5008121;28;19917;-33
2022/12/10 07:39:56;;;;;;;;;;;;;;;6.76;nan;101075.47;5008148;28;19918;-32
2022/12/10 07:42:21;;;;;;;;;;;;;;;6.76;nan;101076.28;5006961;28;19922;-33
2022/12/10 07:44:48;;;;;;;;;;;;;;;6.76;nan;101073.63;5008366;28;19932;-33
2022/12/10 07:47:13;;;;;;;;;;;;;;;6.78;nan;101086.72;5007247;28;20444;-33
2022/12/10 07:49:38;;;;;;;;;;;;;;;6.79;nan;101083.84;5008977;28;20008;-33
2022/12/10 07:52:04;;;;;;;;;;;;;;;6.80;nan;101084.66;5007626;28;19976;-33
2022/12/10 07:54:29;;;;;;;;;;;;;;;6.80;nan;101084.66;5008071;28;19949;-33
2022/12/10 07:56:54;;;;;;;;;;;;;;;6.80;nan;101082.81;5007711;28;20044;-32
2022/12/10 07:59:20;;;;;;;;;;;;;;;6.79;nan;101083.84;5007608;28;19925;-33
2022/12/10 08:01:45;;;;;;;;;;;;;;;6.81;nan;101080.94;5008307;28;19949;-33
2022/12/10 08:04:10;;;;;;;;;;;;;;;6.79;nan;101081.16;5007490;28;19928;-33
2022/12/10 08:06:36;;;;;;;;;;;;;;;6.80;nan;101087.31;5008443;28;19918;-33
2022/12/10 08:09:01;;;;;;;;;;;;;;;6.81;nan;101081.78;5007576;28;20363;-34
2022/12/10 08:11:27;;;;;;;;;;;;;;;6.84;nan;101092.03;5007847;28;19925;-33
2022/12/10 08:13:52;;;;;;;;;;;;;;;6.86;nan;101097.94;5007642;28;20312;-33
2022/12/10 08:16:20;;;;;;;;;;;;;;;6.85;nan;101090.97;5007731;28;20328;-33
2022/12/10 08:18:46;;;;;;;;;;;;;;;6.83;nan;101095.72;5007276;28;20335;-33
2022/12/10 08:21:13;;;;;;;;;;;;;;;6.81;nan;101100.41;5006896;28;19917;-33
2022/12/10 08:23:38;;;;;;;;;;;;;;;6.81;nan;101094.28;5008211;28;19917;-33
2022/12/10 08:26:07;;;;;;;;;;;;;;;6.84;nan;101100.00;5006683;28;19936;-34
2022/12/10 08:28:33;;;;;;;;;;;;;;;6.84;nan;101097.34;5007127;28;20381;-33
2022/12/10 08:30:58;;;;;;;;;;;;;;;6.85;nan;101103.50;5007121;28;19924;-33
2022/12/10 08:33:24;;;;;;;;;;;;;;;6.87;nan;101104.91;5006945;28;19944;-33
2022/12/10 08:35:49;;;;;;;;;;;;;;;6.86;nan;101102.47;5007207;28;20328;-33
2022/12/10 08:38:14;;;;;;;;;;;;;;;6.88;nan;101111.03;5006500;28;20353;-33
2022/12/10 08:40:40;;;;;;;;;;;;;;;6.91;nan;101108.75;5005367;28;19918;-33
2022/12/10 08:43:06;;;;;;;;;;;;;;;6.92;nan;101105.06;5006903;28;19932;-33
2022/12/10 08:45:31;;;;;;;;;;;;;;;6.94;nan;101105.66;5005228;28;20386;-33
2022/12/10 08:47:56;;;;;;;;;;;;;;;6.95;nan;101107.28;5006541;28;19924;-33
2022/12/10 08:50:22;;;;;;;;;;;;;;;6.98;nan;101100.72;5006083;28;19924;-33
2022/12/10 08:52:47;;;;;;;;;;;;;;;7.00;nan;101105.81;5005648;28;19924;-33
2022/12/10 08:55:12;;;;;;;;;;;;;;;7.01;nan;101104.81;5006091;28;20120;-33
2022/12/10 08:57:38;;;;;;;;;;;;;;;7.01;nan;101110.16;5004726;28;20004;-32
2022/12/10 09:00:03;;;;;;;;;;;;;;;7.01;nan;101110.16;5006421;28;20387;-33
2022/12/10 09:02:29;;;;;;;;;;;;;;;7.02;nan;101109.13;5006056;28;19918;-33
2022/12/10 09:04:54;;;;;;;;;;;;;;;7.05;nan;101116.69;5006285;28;19961;-33
2022/12/10 09:07:19;;;;;;;;;;;;;;;7.06;nan;101124.44;5005304;28;19918;-32
2022/12/10 09:09:45;;;;;;;;;;;;;;;7.05;nan;101117.50;5005905;28;20376;-33
2022/12/10 09:12:10;;;;;;;;;;;;;;;7.07;nan;101125.25;5005364;28;20458;-33
2022/12/10 09:14:38;;;;;;;;;;;;;;;7.08;nan;101121.56;5005840;28;19926;-33
2022/12/10 09:17:03;;;;;;;;;;;;;;;7.07;nan;101126.06;5004432;28;19917;-33
2022/12/10 09:19:29;;;;;;;;;;;;;;;7.09;nan;101124.00;5003153;28;19932;-33
2022/12/10 09:21:54;;;;;;;;;;;;;;;7.12;nan;101123.56;5006248;28;19917;-33
2022/12/10 09:24:19;;;;;;;;;;;;;;;7.13;nan;101119.06;5005723;28;19935;-33
2022/12/10 09:26:45;;;;;;;;;;;;;;;7.14;nan;101126.03;5005830;28;20431;-33
2022/12/10 09:29:10;;;;;;;;;;;;;;;7.13;nan;101132.38;5006257;28;20380;-33
2022/12/10 09:31:36;;;;;;;;;;;;;;;7.12;nan;101122.75;5005794;28;20342;-33
2022/12/10 09:34:02;;;;;;;;;;;;;;;7.12;nan;101122.75;5005945;28;19928;-33
2022/12/10 09:36:27;;;;;;;;;;;;;;;7.12;nan;101120.91;5005854;28;19929;-33
2022/12/10 09:38:53;;;;;;;;;;;;;;;7.13;nan;101119.06;5005537;28;19953;-33
2022/12/10 09:41:28;;;;;;;;;;;;;;;7.15;nan;101111.66;5005710;28;20191;-33
2022/12/10 09:44:11;;;;;;;;;;;;;;;7.16;nan;101108.78;5005656;28;19923;-33
2022/12/10 09:46:39;;;;;;;;;;;;;;;7.15;nan;101098.34;5005435;28;19917;-33
2022/12/10 09:49:21;;;;;;;;;;;;;;;7.17;nan;101096.28;5004820;28;20078;-33
2022/12/10 09:51:47;;;;;;;;;;;;;;;7.18;nan;101096.09;5006325;28;20341;-33
2022/12/10 09:54:22;;;;;;;;;;;;;;;7.18;nan;101097.91;5005585;28;20008;-33
2022/12/10 09:56:48;;;;;;;;;;;;;;;7.18;nan;101105.91;5005479;28;19983;-33
2022/12/10 09:59:19;;;;;;;;;;;;;;;7.17;nan;101102.41;5005192;28;20021;-33
2022/12/10 10:01:46;;;;;;;;;;;;;;;7.19;nan;101110.22;5005555;28;19932;-33
2022/12/10 10:04:11;;;;;;;;;;;;;;;7.21;nan;101100.16;5005589;28;20308;-33
2022/12/10 10:06:37;;;;;;;;;;;;;;;7.24;nan;101097.06;5008763;28;19929;-33
2022/12/10 10:09:03;;;;;;;;;;;;;;;7.28;nan;101098.25;5007997;28;19917;-33
2022/12/10 10:11:30;;;;;;;;;;;;;;;7.28;nan;101100.91;5008615;28;19976;-33
2022/12/10 10:14:01;;;;;;;;;;;;;;;7.31;nan;101095.13;5009140;28;19979;-33
2022/12/10 10:16:45;;;;;;;;;;;;;;;7.32;nan;101101.28;5008659;28;19921;-33
2022/12/10 10:19:15;;;;;;;;;;;;;;;7.28;nan;101101.72;5007342;28;19918;-33
2022/12/10 10:21:45;;;;;;;;;;;;;;;7.27;nan;101104.63;5007929;28;19917;-33
2022/12/10 10:24:16;;;;;;;;;;;;;;;7.27;nan;101105.44;5008138;28;19921;-33
2022/12/10 10:26:41;;;;;;;;;;;;;;;7.30;nan;101103.34;5008525;28;19917;-33
2022/12/10 10:29:09;;;;;;;;;;;;;;;7.32;nan;101098.63;5007727;28;20439;-33
2022/12/10 10:31:37;;;;;;;;;;;;;;;7.35;nan;101101.66;5008672;28;19928;-33
2022/12/10 10:34:04;;;;;;;;;;;;;;;7.33;nan;101106.41;5007670;28;19932;-33
2022/12/10 10:36:34;;;;;;;;;;;;;;;7.36;nan;101108.66;5006035;28;19921;-33
2022/12/10 10:39:09;;;;;;;;;;;;;;;7.37;nan;101098.81;5007387;28;19917;-33
2022/12/10 10:41:39;;;;;;;;;;;;;;;7.38;nan;101101.25;5004689;28;19922;-33
2022/12/10 10:44:04;;;;;;;;;;;;;;;7.41;nan;101100.00;5008044;28;19926;-33
2022/12/10 10:46:34;;;;;;;;;;;;;;;7.40;nan;101099.19;5005872;28;20690;-33
2022/12/10 10:49:36;;;;;;;;;;;;;;;7.40;nan;101096.50;5006863;28;19964;-33
2022/12/10 10:52:06;;;;;;;;;;;;;;;7.41;nan;101094.66;4944663;29;19997;-33
2022/12/10 10:54:31;;;;;;;;;;;;;;;7.42;nan;101097.09;4995558;28;19965;-33
2022/12/10 10:56:57;;;;;;;;;;;;;;;7.44;nan;101103.03;5005597;28;20408;-33
2022/12/10 10:59:30;;;;;;;;;;;;;;;7.44;nan;101097.69;5004027;28;19925;-33
2022/12/10 11:02:00;;;;;;;;;;;;;;;7.42;nan;101096.28;5002557;28;20533;-33
2022/12/10 11:04:35;;;;;;;;;;;;;;;7.45;nan;101096.66;5004703;28;20020;-33
2022/12/10 11:07:01;;;;;;;;;;;;;;;7.46;nan;101092.97;5003218;28;20328;-33
2022/12/10 11:09:28;;;;;;;;;;;;;;;7.49;nan;101099.69;5005398;28;19929;-32
2022/12/10 11:12:16;;;;;;;;;;;;;;;7.51;nan;101090.44;5004322;28;19921;-33
2022/12/10 11:14:45;;;;;;;;;;;;;;;7.51;nan;101082.44;5005776;28;19948;-33
2022/12/10 11:17:11;;;;;;;;;;;;;;;7.51;nan;101094.97;5005743;28;20613;-33
2022/12/10 11:19:43;;;;;;;;;;;;;;;7.52;nan;101092.06;5006599;28;19925;-33
2022/12/10 11:22:15;;;;;;;;;;;;;;;7.55;nan;101086.31;5005402;28;19929;-33
2022/12/10 11:24:40;;;;;;;;;;;;;;;7.57;nan;101083.44;5008072;28;20012;-33
2022/12/10 11:27:13;;;;;;;;;;;;;;;7.58;nan;101085.88;5008282;28;20476;-33
2022/12/10 11:29:44;;;;;;;;;;;;;;;7.58;nan;101083.22;5007467;28;19963;-33
2022/12/10 11:32:09;;;;;;;;;;;;;;;7.55;nan;101081.00;5006284;28;19928;-33
2022/12/10 11:34:44;;;;;;;;;;;;;;;7.56;nan;101090.63;5007028;28;19917;-33
2022/12/10 11:37:18;;;;;;;;;;;;;;;7.58;nan;101080.56;5006142;28;19925;-33
2022/12/10 11:39:47;;;;;;;;;;;;;;;7.62;nan;101082.78;5002369;28;19917;-33
2022/12/10 11:42:20;;;;;;;;;;;;;;;7.62;nan;101072.91;5004771;28;19917;-33
2022/12/10 11:45:01;;;;;;;;;;;;;;;7.64;nan;101080.69;5002660;28;20016;-33
2022/12/10 11:47:40;;;;;;;;;;;;;;;7.62;nan;101078.25;5002576;28;19935;-33
2022/12/10 11:50:14;;;;;;;;;;;;;;;7.63;nan;101079.06;5006659;28;20386;-33
2022/12/10 11:52:46;;;;;;;;;;;;;;;7.64;nan;101084.19;5004730;28;20798;-33
2022/12/10 11:55:40;;;;;;;;;;;;;;;7.64;nan;101086.03;5006096;28;19921;-33
2022/12/10 11:58:12;;;;;;;;;;;;;;;7.65;nan;101082.31;4987006;28;19925;-33
2022/12/10 12:00:42;;;;;;;;;;;;;;;7.65;nan;101079.66;5005510;28;20417;-33
2022/12/10 12:03:26;;;;;;;;;;;;;;;7.63;nan;101077.22;5005117;28;20396;-34
2022/12/10 12:06:02;;;;;;;;;;;;;;;7.61;nan;101075.81;4998765;28;20289;-32
2022/12/10 12:08:27;;;;;;;;;;;;;;;7.60;nan;101075.00;5002180;28;19925;-33
2022/12/10 12:11:18;;;;;;;;;;;;;;;7.61;nan;101081.16;5004433;28;20400;-33
2022/12/10 12:13:55;;;;;;;;;;;;;;;7.60;nan;101083.00;5003316;28;19996;-33
2022/12/10 12:16:26;;;;;;;;;;;;;;;7.63;nan;101085.22;5003845;28;19917;-33
2022/12/10 12:18:58;;;;;;;;;;;;;;;7.64;nan;101084.19;5004456;28;19921;-33
2022/12/10 12:21:24;;;;;;;;;;;;;;;7.67;nan;101075.72;5004217;28;19921;-34
2022/12/10 12:23:53;;;;;;;;;;;;;;;7.69;nan;101084.31;5005374;28;19924;-33
2022/12/10 12:26:19;;;;;;;;;;;;;;;7.67;nan;101072.25;4999411;28;19918;-33
2022/12/10 12:28:53;;;;;;;;;;;;;;;7.62;nan;101086.25;5002471;28;19983;-33
2022/12/10 12:31:25;;;;;;;;;;;;;;;7.58;nan;101079.75;5003665;28;20328;-33
2022/12/10 12:34:14;;;;;;;;;;;;;;;7.58;nan;101077.88;5001930;28;19928;-33
2022/12/10 12:36:40;;;;;;;;;;;;;;;7.58;nan;101072.56;4995391;28;19922;-33
2022/12/10 12:39:14;;;;;;;;;;;;;;;7.57;nan;101070.09;5000583;28;19928;-33
2022/12/10 12:41:43;;;;;;;;;;;;;;;7.53;nan;101074.22;5004372;28;19921;-33
2022/12/10 12:44:25;;;;;;;;;;;;;;;7.53;nan;101077.72;5004816;28;20280;-33
2022/12/10 12:46:52;;;;;;;;;;;;;;;7.53;nan;101071.56;5003152;28;19917;-34
2022/12/10 12:49:18;;;;;;;;;;;;;;;7.52;nan;101070.75;5001370;28;19928;-34
2022/12/10 12:51:55;;;;;;;;;;;;;;;7.54;nan;101075.84;5004515;28;19921;-33
2022/12/10 12:54:21;;;;;;;;;;;;;;;7.60;nan;101082.19;5004531;28;19925;-33
2022/12/10 12:56:46;;;;;;;;;;;;;;;7.65;nan;101077.81;5003297;28;19921;-33
2022/12/10 12:59:19;;;;;;;;;;;;;;;7.69;nan;101075.50;5002723;28;19999;-33
2022/12/10 13:01:58;;;;;;;;;;;;;;;7.68;nan;101089.88;5002474;28;19968;-33
2022/12/10 13:04:24;;;;;;;;;;;;;;;7.62;nan;101080.91;5004636;28;20032;-33
2022/12/10 13:07:08;;;;;;;;;;;;;;;7.57;nan;101078.91;4999245;28;20393;-33
2022/12/10 13:09:33;;;;;;;;;;;;;;;7.51;nan;101085.13;5003729;28;19945;-33
2022/12/10 13:12:01;;;;;;;;;;;;;;;7.50;nan;101080.00;5004343;28;19922;-33
2022/12/10 13:14:51;;;;;;;;;;;;;;;7.53;nan;101087.56;5003461;28;19928;-33
2022/12/10 13:17:35;;;;;;;;;;;;;;;7.56;nan;101087.97;4995403;28;19968;-33
2022/12/10 13:20:30;;;;;;;;;;;;;;;7.54;nan;101092.69;5001374;28;19921;-33
2022/12/10 13:23:00;;;;;;;;;;;;;;;7.56;nan;101092.47;4984597;28;20515;-33
2022/12/10 13:25:57;;;;;;;;;;;;;;;7.58;nan;101093.88;5004673;28;19933;-33